sensor_id;sensor_type;location;lat;lon;timestamp;P1;durP1;ratioP1;P2;durP2;ratioP2
65373;SDS011;52070;53.760;9.678;2024-02-15T00:01:41;36.67;;;14.07;;
65373;SDS011;52070;53.760;9.678;2024-02-15T00:04:08;35.33;;;13.13;;
65373;SDS011;52070;53.760;9.678;2024-02-15T00:06:38;39.38;;;14.57;;
65373;SDS011;52070;53.760;9.678;2024-02-15T00:09:05;34.25;;;13.02;;
65373;SDS011;52070;53.760;9.678;2024-02-15T00:11:32;45.03;;;15.35;;
65373;SDS011;52070;53.760;9.678;2024-02-15T00:13:59;44.70;;;14.27;;
65373;SDS011;52070;53.760;9.678;2024-02-15T00:16:26;37.03;;;14.02;;
65373;SDS011;52070;53.760;9.678;2024-02-15T00:18:53;41.00;;;14.02;;
65373;SDS011;52070;53.760;9.678;2024-02-15T00:21:20;47.60;;;14.98;;
65373;SDS011;52070;53.760;9.678;2024-02-15T00:23:49;40.83;;;13.48;;
65373;SDS011;52070;53.760;9.678;2024-02-15T00:26:16;44.65;;;14.23;;
65373;SDS011;52070;53.760;9.678;2024-02-15T00:28:43;41.75;;;13.27;;
65373;SDS011;52070;53.760;9.678;2024-02-15T00:31:10;38.47;;;13.63;;
65373;SDS011;52070;53.760;9.678;2024-02-15T00:33:37;40.15;;;13.32;;
65373;SDS011;52070;53.760;9.678;2024-02-15T00:36:04;44.60;;;13.85;;
65373;SDS011;52070;53.760;9.678;2024-02-15T00:38:32;34.35;;;12.45;;
65373;SDS011;52070;53.760;9.678;2024-02-15T00:41:00;36.42;;;12.38;;
65373;SDS011;52070;53.760;9.678;2024-02-15T00:43:28;41.63;;;12.50;;
65373;SDS011;52070;53.760;9.678;2024-02-15T00:45:54;38.20;;;13.32;;
65373;SDS011;52070;53.760;9.678;2024-02-15T00:48:23;37.47;;;11.73;;
65373;SDS011;52070;53.760;9.678;2024-02-15T00:50:51;34.63;;;12.27;;
65373;SDS011;52070;53.760;9.678;2024-02-15T00:53:18;35.22;;;11.13;;
65373;SDS011;52070;53.760;9.678;2024-02-15T00:55:46;37.03;;;12.02;;
65373;SDS011;52070;53.760;9.678;2024-02-15T00:58:14;32.70;;;11.40;;
65373;SDS011;52070;53.760;9.678;2024-02-15T01:00:41;34.47;;;12.05;;
65373;SDS011;52070;53.760;9.678;2024-02-15T01:03:08;32.42;;;12.18;;
65373;SDS011;52070;53.760;9.678;2024-02-15T01:05:35;38.65;;;11.63;;
65373;SDS011;52070;53.760;9.678;2024-02-15T01:08:02;31.70;;;10.85;;
65373;SDS011;52070;53.760;9.678;2024-02-15T01:10:30;31.55;;;10.52;;
65373;SDS011;52070;53.760;9.678;2024-02-15T01:12:59;34.42;;;11.30;;
65373;SDS011;52070;53.760;9.678;2024-02-15T01:15:27;32.47;;;11.18;;
65373;SDS011;52070;53.760;9.678;2024-02-15T01:17:55;32.53;;;11.15;;
65373;SDS011;52070;53.760;9.678;2024-02-15T01:20:22;30.25;;;10.80;;
65373;SDS011;52070;53.760;9.678;2024-02-15T01:22:49;32.67;;;11.77;;
65373;SDS011;52070;53.760;9.678;2024-02-15T01:25:17;30.48;;;10.38;;
65373;SDS011;52070;53.760;9.678;2024-02-15T01:27:44;31.55;;;10.82;;
65373;SDS011;52070;53.760;9.678;2024-02-15T01:30:11;32.10;;;10.90;;
65373;SDS011;52070;53.760;9.678;2024-02-15T01:32:40;29.27;;;10.27;;
65373;SDS011;52070;53.760;9.678;2024-02-15T01:35:07;28.80;;;10.48;;
65373;SDS011;52070;53.760;9.678;2024-02-15T01:37:35;30.00;;;11.10;;
65373;SDS011;52070;53.760;9.678;2024-02-15T01:40:04;34.40;;;10.73;;
65373;SDS011;52070;53.760;9.678;2024-02-15T01:42:32;37.53;;;11.32;;
65373;SDS011;52070;53.760;9.678;2024-02-15T01:44:59;37.85;;;11.70;;
65373;SDS011;52070;53.760;9.678;2024-02-15T01:47:26;39.08;;;11.38;;
65373;SDS011;52070;53.760;9.678;2024-02-15T01:49:56;30.75;;;10.38;;
65373;SDS011;52070;53.760;9.678;2024-02-15T01:52:23;32.10;;;10.98;;
65373;SDS011;52070;53.760;9.678;2024-02-15T01:54:50;31.27;;;11.10;;
65373;SDS011;52070;53.760;9.678;2024-02-15T01:57:19;33.15;;;10.73;;
65373;SDS011;52070;53.760;9.678;2024-02-15T01:59:47;31.08;;;10.98;;
65373;SDS011;52070;53.760;9.678;2024-02-15T02:02:17;34.40;;;10.83;;
65373;SDS011;52070;53.760;9.678;2024-02-15T02:04:47;35.67;;;11.52;;
65373;SDS011;52070;53.760;9.678;2024-02-15T02:07:15;36.00;;;10.95;;
65373;SDS011;52070;53.760;9.678;2024-02-15T02:09:42;35.33;;;11.05;;
65373;SDS011;52070;53.760;9.678;2024-02-15T02:12:11;38.15;;;11.52;;
65373;SDS011;52070;53.760;9.678;2024-02-15T02:14:38;33.00;;;10.88;;
65373;SDS011;52070;53.760;9.678;2024-02-15T02:17:10;42.58;;;11.48;;
65373;SDS011;52070;53.760;9.678;2024-02-15T02:19:39;40.22;;;12.23;;
65373;SDS011;52070;53.760;9.678;2024-02-15T02:22:06;38.70;;;11.80;;
65373;SDS011;52070;53.760;9.678;2024-02-15T02:24:39;37.60;;;12.30;;
65373;SDS011;52070;53.760;9.678;2024-02-15T02:27:13;32.95;;;10.70;;
65373;SDS011;52070;53.760;9.678;2024-02-15T02:29:42;36.90;;;11.55;;
65373;SDS011;52070;53.760;9.678;2024-02-15T02:32:11;41.75;;;11.90;;
65373;SDS011;52070;53.760;9.678;2024-02-15T02:34:38;35.15;;;11.68;;
65373;SDS011;52070;53.760;9.678;2024-02-15T02:37:06;34.58;;;11.48;;
65373;SDS011;52070;53.760;9.678;2024-02-15T02:39:33;41.05;;;12.40;;
65373;SDS011;52070;53.760;9.678;2024-02-15T02:42:01;34.15;;;12.45;;
65373;SDS011;52070;53.760;9.678;2024-02-15T02:44:29;37.78;;;12.02;;
65373;SDS011;52070;53.760;9.678;2024-02-15T02:46:56;44.00;;;12.00;;
65373;SDS011;52070;53.760;9.678;2024-02-15T02:49:23;35.85;;;12.18;;
65373;SDS011;52070;53.760;9.678;2024-02-15T02:51:50;40.35;;;12.90;;
65373;SDS011;52070;53.760;9.678;2024-02-15T02:54:17;38.47;;;12.88;;
65373;SDS011;52070;53.760;9.678;2024-02-15T02:56:44;48.47;;;12.30;;
65373;SDS011;52070;53.760;9.678;2024-02-15T02:59:11;37.72;;;13.00;;
65373;SDS011;52070;53.760;9.678;2024-02-15T03:01:40;38.13;;;11.88;;
65373;SDS011;52070;53.760;9.678;2024-02-15T03:04:07;37.78;;;13.00;;
65373;SDS011;52070;53.760;9.678;2024-02-15T03:06:34;39.80;;;12.82;;
65373;SDS011;52070;53.760;9.678;2024-02-15T03:09:01;37.78;;;12.80;;
65373;SDS011;52070;53.760;9.678;2024-02-15T03:14:00;37.95;;;12.48;;
65373;SDS011;52070;53.760;9.678;2024-02-15T03:16:29;37.78;;;12.27;;
65373;SDS011;52070;53.760;9.678;2024-02-15T03:18:58;34.90;;;12.15;;
65373;SDS011;52070;53.760;9.678;2024-02-15T03:21:26;41.28;;;13.30;;
65373;SDS011;52070;53.760;9.678;2024-02-15T03:23:53;42.08;;;13.20;;
65373;SDS011;52070;53.760;9.678;2024-02-15T03:26:26;41.97;;;12.98;;
65373;SDS011;52070;53.760;9.678;2024-02-15T03:28:56;45.70;;;13.48;;
65373;SDS011;52070;53.760;9.678;2024-02-15T03:31:23;40.85;;;12.80;;
65373;SDS011;52070;53.760;9.678;2024-02-15T03:33:50;40.33;;;12.82;;
65373;SDS011;52070;53.760;9.678;2024-02-15T03:36:20;37.47;;;12.70;;
65373;SDS011;52070;53.760;9.678;2024-02-15T03:38:47;35.00;;;12.13;;
65373;SDS011;52070;53.760;9.678;2024-02-15T03:41:14;42.53;;;12.93;;
65373;SDS011;52070;53.760;9.678;2024-02-15T03:43:41;40.38;;;13.13;;
65373;SDS011;52070;53.760;9.678;2024-02-15T03:46:08;46.53;;;13.32;;
65373;SDS011;52070;53.760;9.678;2024-02-15T03:48:38;45.47;;;13.73;;
65373;SDS011;52070;53.760;9.678;2024-02-15T03:51:05;42.85;;;12.32;;
65373;SDS011;52070;53.760;9.678;2024-02-15T03:53:33;47.17;;;13.50;;
65373;SDS011;52070;53.760;9.678;2024-02-15T03:56:03;49.97;;;13.45;;
65373;SDS011;52070;53.760;9.678;2024-02-15T03:58:30;50.17;;;13.45;;
65373;SDS011;52070;53.760;9.678;2024-02-15T04:00:58;50.13;;;13.38;;
65373;SDS011;52070;53.760;9.678;2024-02-15T04:03:25;39.22;;;13.55;;
65373;SDS011;52070;53.760;9.678;2024-02-15T04:05:52;49.00;;;14.60;;
65373;SDS011;52070;53.760;9.678;2024-02-15T04:08:20;42.58;;;13.68;;
65373;SDS011;52070;53.760;9.678;2024-02-15T04:10:48;45.42;;;13.85;;
65373;SDS011;52070;53.760;9.678;2024-02-15T04:13:16;49.30;;;14.55;;
65373;SDS011;52070;53.760;9.678;2024-02-15T04:15:43;60.03;;;14.55;;
65373;SDS011;52070;53.760;9.678;2024-02-15T04:18:12;57.55;;;13.93;;
65373;SDS011;52070;53.760;9.678;2024-02-15T04:20:40;58.25;;;15.13;;
65373;SDS011;52070;53.760;9.678;2024-02-15T04:23:10;47.95;;;14.38;;
65373;SDS011;52070;53.760;9.678;2024-02-15T04:25:37;49.75;;;14.25;;
65373;SDS011;52070;53.760;9.678;2024-02-15T04:28:06;48.42;;;14.02;;
65373;SDS011;52070;53.760;9.678;2024-02-15T04:30:34;54.30;;;15.33;;
65373;SDS011;52070;53.760;9.678;2024-02-15T04:33:04;50.33;;;14.40;;
65373;SDS011;52070;53.760;9.678;2024-02-15T04:35:31;54.60;;;15.05;;
65373;SDS011;52070;53.760;9.678;2024-02-15T04:37:58;49.92;;;13.85;;
65373;SDS011;52070;53.760;9.678;2024-02-15T04:40:25;55.03;;;15.57;;
65373;SDS011;52070;53.760;9.678;2024-02-15T04:42:52;55.35;;;15.85;;
65373;SDS011;52070;53.760;9.678;2024-02-15T04:45:20;62.92;;;16.02;;
65373;SDS011;52070;53.760;9.678;2024-02-15T04:47:48;61.17;;;14.77;;
65373;SDS011;52070;53.760;9.678;2024-02-15T04:50:18;50.05;;;14.57;;
65373;SDS011;52070;53.760;9.678;2024-02-15T04:52:46;57.60;;;14.88;;
65373;SDS011;52070;53.760;9.678;2024-02-15T04:55:15;58.78;;;14.48;;
65373;SDS011;52070;53.760;9.678;2024-02-15T04:57:43;49.35;;;14.43;;
65373;SDS011;52070;53.760;9.678;2024-02-15T05:00:13;61.95;;;14.25;;
65373;SDS011;52070;53.760;9.678;2024-02-15T05:02:42;51.28;;;14.80;;
65373;SDS011;52070;53.760;9.678;2024-02-15T05:05:10;49.28;;;14.35;;
65373;SDS011;52070;53.760;9.678;2024-02-15T05:07:38;53.70;;;14.63;;
65373;SDS011;52070;53.760;9.678;2024-02-15T05:10:06;54.10;;;14.68;;
65373;SDS011;52070;53.760;9.678;2024-02-15T05:12:35;45.70;;;13.80;;
65373;SDS011;52070;53.760;9.678;2024-02-15T05:15:03;47.20;;;14.27;;
65373;SDS011;52070;53.760;9.678;2024-02-15T05:17:36;46.33;;;13.75;;
65373;SDS011;52070;53.760;9.678;2024-02-15T05:20:08;57.33;;;14.40;;
65373;SDS011;52070;53.760;9.678;2024-02-15T05:22:38;46.38;;;14.00;;
65373;SDS011;52070;53.760;9.678;2024-02-15T05:27:37;49.33;;;13.88;;
65373;SDS011;52070;53.760;9.678;2024-02-15T05:30:05;54.65;;;13.95;;
65373;SDS011;52070;53.760;9.678;2024-02-15T05:32:33;51.80;;;13.40;;
65373;SDS011;52070;53.760;9.678;2024-02-15T05:35:09;60.70;;;16.38;;
65373;SDS011;52070;53.760;9.678;2024-02-15T05:37:36;53.07;;;13.87;;
65373;SDS011;52070;53.760;9.678;2024-02-15T05:40:03;53.10;;;15.00;;
65373;SDS011;52070;53.760;9.678;2024-02-15T05:42:32;53.03;;;14.88;;
65373;SDS011;52070;53.760;9.678;2024-02-15T05:45:14;53.08;;;14.45;;
65373;SDS011;52070;53.760;9.678;2024-02-15T05:47:58;53.88;;;14.13;;
65373;SDS011;52070;53.760;9.678;2024-02-15T05:50:27;49.25;;;14.18;;
65373;SDS011;52070;53.760;9.678;2024-02-15T05:52:55;56.35;;;15.25;;
65373;SDS011;52070;53.760;9.678;2024-02-15T05:55:24;43.65;;;13.88;;
65373;SDS011;52070;53.760;9.678;2024-02-15T05:57:52;52.05;;;16.33;;
65373;SDS011;52070;53.760;9.678;2024-02-15T06:00:20;49.08;;;15.02;;
65373;SDS011;52070;53.760;9.678;2024-02-15T06:02:47;67.00;;;15.13;;
65373;SDS011;52070;53.760;9.678;2024-02-15T06:05:14;55.00;;;14.75;;
65373;SDS011;52070;53.760;9.678;2024-02-15T06:07:44;51.67;;;14.52;;
65373;SDS011;52070;53.760;9.678;2024-02-15T06:10:12;46.53;;;15.30;;
65373;SDS011;52070;53.760;9.678;2024-02-15T06:12:40;42.58;;;14.02;;
65373;SDS011;52070;53.760;9.678;2024-02-15T06:15:08;49.03;;;14.60;;
65373;SDS011;52070;53.760;9.678;2024-02-15T06:17:40;54.80;;;15.23;;
65373;SDS011;52070;53.760;9.678;2024-02-15T06:20:10;47.25;;;14.35;;
65373;SDS011;52070;53.760;9.678;2024-02-15T06:22:40;47.05;;;14.60;;
65373;SDS011;52070;53.760;9.678;2024-02-15T06:25:09;45.42;;;14.27;;
65373;SDS011;52070;53.760;9.678;2024-02-15T06:27:36;48.75;;;14.43;;
65373;SDS011;52070;53.760;9.678;2024-02-15T06:30:06;47.63;;;14.23;;
65373;SDS011;52070;53.760;9.678;2024-02-15T06:32:52;46.95;;;14.30;;
65373;SDS011;52070;53.760;9.678;2024-02-15T06:35:37;43.65;;;14.43;;
65373;SDS011;52070;53.760;9.678;2024-02-15T06:38:21;52.03;;;16.70;;
65373;SDS011;52070;53.760;9.678;2024-02-15T06:41:08;44.35;;;13.77;;
65373;SDS011;52070;53.760;9.678;2024-02-15T06:43:35;45.72;;;14.88;;
65373;SDS011;52070;53.760;9.678;2024-02-15T06:46:03;59.97;;;17.10;;
65373;SDS011;52070;53.760;9.678;2024-02-15T06:48:33;60.90;;;16.13;;
65373;SDS011;52070;53.760;9.678;2024-02-15T06:51:00;48.35;;;14.82;;
65373;SDS011;52070;53.760;9.678;2024-02-15T06:53:29;52.45;;;15.73;;
65373;SDS011;52070;53.760;9.678;2024-02-15T06:55:56;51.50;;;15.95;;
65373;SDS011;52070;53.760;9.678;2024-02-15T06:58:24;58.88;;;15.30;;
65373;SDS011;52070;53.760;9.678;2024-02-15T07:00:52;54.80;;;14.75;;
65373;SDS011;52070;53.760;9.678;2024-02-15T07:03:20;55.97;;;15.65;;
65373;SDS011;52070;53.760;9.678;2024-02-15T07:05:48;58.47;;;16.20;;
65373;SDS011;52070;53.760;9.678;2024-02-15T07:08:15;47.60;;;15.85;;
65373;SDS011;52070;53.760;9.678;2024-02-15T07:10:42;53.70;;;15.70;;
65373;SDS011;52070;53.760;9.678;2024-02-15T07:13:09;53.50;;;15.40;;
65373;SDS011;52070;53.760;9.678;2024-02-15T07:15:37;60.42;;;15.52;;
65373;SDS011;52070;53.760;9.678;2024-02-15T07:18:05;50.17;;;15.02;;
65373;SDS011;52070;53.760;9.678;2024-02-15T07:20:32;61.65;;;15.75;;
65373;SDS011;52070;53.760;9.678;2024-02-15T07:22:59;51.67;;;15.18;;
65373;SDS011;52070;53.760;9.678;2024-02-15T07:25:26;50.00;;;15.55;;
65373;SDS011;52070;53.760;9.678;2024-02-15T07:27:53;50.78;;;15.05;;
65373;SDS011;52070;53.760;9.678;2024-02-15T07:30:22;52.15;;;15.05;;
65373;SDS011;52070;53.760;9.678;2024-02-15T07:32:50;48.78;;;13.52;;
65373;SDS011;52070;53.760;9.678;2024-02-15T07:35:17;39.72;;;13.00;;
65373;SDS011;52070;53.760;9.678;2024-02-15T07:37:50;40.60;;;13.13;;
65373;SDS011;52070;53.760;9.678;2024-02-15T07:40:21;40.75;;;14.05;;
65373;SDS011;52070;53.760;9.678;2024-02-15T07:42:48;42.17;;;12.82;;
65373;SDS011;52070;53.760;9.678;2024-02-15T07:45:16;44.50;;;12.93;;
65373;SDS011;52070;53.760;9.678;2024-02-15T07:47:43;38.05;;;11.30;;
65373;SDS011;52070;53.760;9.678;2024-02-15T07:50:14;34.40;;;12.05;;
65373;SDS011;52070;53.760;9.678;2024-02-15T07:52:45;34.60;;;12.07;;
65373;SDS011;52070;53.760;9.678;2024-02-15T07:55:13;38.08;;;11.77;;
65373;SDS011;52070;53.760;9.678;2024-02-15T07:57:40;35.17;;;11.25;;
65373;SDS011;52070;53.760;9.678;2024-02-15T08:00:07;35.22;;;11.63;;
65373;SDS011;52070;53.760;9.678;2024-02-15T08:02:37;38.47;;;11.52;;
65373;SDS011;52070;53.760;9.678;2024-02-15T08:05:06;32.42;;;10.98;;
65373;SDS011;52070;53.760;9.678;2024-02-15T08:07:37;34.25;;;10.80;;
65373;SDS011;52070;53.760;9.678;2024-02-15T08:10:07;34.78;;;11.25;;
65373;SDS011;52070;53.760;9.678;2024-02-15T08:12:38;33.55;;;11.18;;
65373;SDS011;52070;53.760;9.678;2024-02-15T08:15:07;30.00;;;11.32;;
65373;SDS011;52070;53.760;9.678;2024-02-15T08:17:37;31.67;;;9.98;;
65373;SDS011;52070;53.760;9.678;2024-02-15T08:20:06;33.28;;;10.32;;
65373;SDS011;52070;53.760;9.678;2024-02-15T08:22:34;34.92;;;11.50;;
65373;SDS011;52070;53.760;9.678;2024-02-15T08:25:06;26.67;;;10.38;;
65373;SDS011;52070;53.760;9.678;2024-02-15T08:27:36;35.13;;;10.45;;
65373;SDS011;52070;53.760;9.678;2024-02-15T08:30:07;33.83;;;10.45;;
65373;SDS011;52070;53.760;9.678;2024-02-15T08:32:36;33.42;;;11.35;;
65373;SDS011;52070;53.760;9.678;2024-02-15T08:35:05;34.17;;;10.80;;
65373;SDS011;52070;53.760;9.678;2024-02-15T08:37:34;32.58;;;10.63;;
65373;SDS011;52070;53.760;9.678;2024-02-15T08:40:01;35.25;;;10.45;;
65373;SDS011;52070;53.760;9.678;2024-02-15T08:42:31;31.60;;;10.85;;
65373;SDS011;52070;53.760;9.678;2024-02-15T08:44:58;37.00;;;10.50;;
65373;SDS011;52070;53.760;9.678;2024-02-15T08:47:25;33.65;;;11.10;;
65373;SDS011;52070;53.760;9.678;2024-02-15T08:49:52;42.28;;;11.57;;
65373;SDS011;52070;53.760;9.678;2024-02-15T08:52:19;30.08;;;10.52;;
65373;SDS011;52070;53.760;9.678;2024-02-15T08:54:46;33.67;;;11.13;;
65373;SDS011;52070;53.760;9.678;2024-02-15T08:57:13;32.08;;;10.23;;
65373;SDS011;52070;53.760;9.678;2024-02-15T08:59:41;35.60;;;11.40;;
65373;SDS011;52070;53.760;9.678;2024-02-15T09:02:08;33.20;;;10.43;;
65373;SDS011;52070;53.760;9.678;2024-02-15T09:04:35;34.22;;;10.68;;
65373;SDS011;52070;53.760;9.678;2024-02-15T09:07:02;37.15;;;11.73;;
65373;SDS011;52070;53.760;9.678;2024-02-15T09:09:29;40.58;;;12.18;;
65373;SDS011;52070;53.760;9.678;2024-02-15T09:12:00;42.03;;;11.68;;
65373;SDS011;52070;53.760;9.678;2024-02-15T09:14:30;35.15;;;11.35;;
65373;SDS011;52070;53.760;9.678;2024-02-15T09:16:58;37.35;;;11.98;;
65373;SDS011;52070;53.760;9.678;2024-02-15T09:19:25;40.35;;;12.02;;
65373;SDS011;52070;53.760;9.678;2024-02-15T09:21:52;42.72;;;12.10;;
65373;SDS011;52070;53.760;9.678;2024-02-15T09:24:20;39.50;;;12.10;;
65373;SDS011;52070;53.760;9.678;2024-02-15T09:26:47;36.03;;;11.20;;
65373;SDS011;52070;53.760;9.678;2024-02-15T09:29:14;43.50;;;12.85;;
65373;SDS011;52070;53.760;9.678;2024-02-15T09:31:41;38.67;;;11.82;;
65373;SDS011;52070;53.760;9.678;2024-02-15T09:34:10;39.85;;;12.77;;
65373;SDS011;52070;53.760;9.678;2024-02-15T09:36:38;37.65;;;13.13;;
65373;SDS011;52070;53.760;9.678;2024-02-15T09:39:05;45.35;;;14.25;;
65373;SDS011;52070;53.760;9.678;2024-02-15T09:41:32;47.75;;;13.23;;
65373;SDS011;52070;53.760;9.678;2024-02-15T09:44:00;40.92;;;12.98;;
65373;SDS011;52070;53.760;9.678;2024-02-15T09:46:28;34.25;;;12.52;;
65373;SDS011;52070;53.760;9.678;2024-02-15T09:48:56;41.92;;;13.77;;
65373;SDS011;52070;53.760;9.678;2024-02-15T09:51:26;42.10;;;13.70;;
65373;SDS011;52070;53.760;9.678;2024-02-15T09:53:56;41.88;;;13.52;;
65373;SDS011;52070;53.760;9.678;2024-02-15T09:56:23;46.17;;;14.15;;
65373;SDS011;52070;53.760;9.678;2024-02-15T09:58:54;47.00;;;13.52;;
65373;SDS011;52070;53.760;9.678;2024-02-15T10:01:22;44.28;;;14.80;;
65373;SDS011;52070;53.760;9.678;2024-02-15T10:03:49;46.08;;;15.10;;
65373;SDS011;52070;53.760;9.678;2024-02-15T10:06:17;43.90;;;14.02;;
65373;SDS011;52070;53.760;9.678;2024-02-15T10:08:46;52.20;;;15.60;;
65373;SDS011;52070;53.760;9.678;2024-02-15T10:11:13;41.28;;;13.90;;
65373;SDS011;52070;53.760;9.678;2024-02-15T10:13:41;40.75;;;13.93;;
65373;SDS011;52070;53.760;9.678;2024-02-15T10:16:19;43.42;;;13.30;;
65373;SDS011;52070;53.760;9.678;2024-02-15T10:18:50;39.53;;;13.85;;
65373;SDS011;52070;53.760;9.678;2024-02-15T10:21:24;41.45;;;14.35;;
65373;SDS011;52070;53.760;9.678;2024-02-15T10:24:03;36.72;;;13.07;;
65373;SDS011;52070;53.760;9.678;2024-02-15T10:26:32;40.90;;;13.80;;
65373;SDS011;52070;53.760;9.678;2024-02-15T10:29:04;41.08;;;13.73;;
65373;SDS011;52070;53.760;9.678;2024-02-15T10:31:34;45.42;;;14.63;;
65373;SDS011;52070;53.760;9.678;2024-02-15T10:34:02;41.22;;;14.40;;
65373;SDS011;52070;53.760;9.678;2024-02-15T10:36:31;42.53;;;14.05;;
65373;SDS011;52070;53.760;9.678;2024-02-15T10:39:13;36.00;;;13.43;;
65373;SDS011;52070;53.760;9.678;2024-02-15T10:41:45;39.78;;;12.82;;
65373;SDS011;52070;53.760;9.678;2024-02-15T10:44:13;40.28;;;14.00;;
65373;SDS011;52070;53.760;9.678;2024-02-15T10:46:43;37.38;;;14.32;;
65373;SDS011;52070;53.760;9.678;2024-02-15T10:49:12;44.78;;;15.13;;
65373;SDS011;52070;53.760;9.678;2024-02-15T10:51:43;44.90;;;13.52;;
65373;SDS011;52070;53.760;9.678;2024-02-15T10:54:12;42.05;;;15.02;;
65373;SDS011;52070;53.760;9.678;2024-02-15T10:56:46;42.75;;;15.05;;
65373;SDS011;52070;53.760;9.678;2024-02-15T10:59:22;40.00;;;15.10;;
65373;SDS011;52070;53.760;9.678;2024-02-15T11:01:58;42.35;;;15.80;;
65373;SDS011;52070;53.760;9.678;2024-02-15T11:04:30;42.38;;;16.08;;
65373;SDS011;52070;53.760;9.678;2024-02-15T11:06:59;38.13;;;15.45;;
65373;SDS011;52070;53.760;9.678;2024-02-15T11:09:28;42.72;;;16.15;;
65373;SDS011;52070;53.760;9.678;2024-02-15T11:11:56;42.63;;;15.38;;
65373;SDS011;52070;53.760;9.678;2024-02-15T11:14:24;36.70;;;15.18;;
65373;SDS011;52070;53.760;9.678;2024-02-15T11:16:54;41.45;;;16.05;;
65373;SDS011;52070;53.760;9.678;2024-02-15T11:22:12;35.85;;;15.18;;
65373;SDS011;52070;53.760;9.678;2024-02-15T11:24:48;40.38;;;15.23;;
65373;SDS011;52070;53.760;9.678;2024-02-15T11:27:25;37.40;;;15.32;;
65373;SDS011;52070;53.760;9.678;2024-02-15T11:29:56;34.45;;;14.15;;
65373;SDS011;52070;53.760;9.678;2024-02-15T11:32:39;34.17;;;15.43;;
65373;SDS011;52070;53.760;9.678;2024-02-15T11:35:09;39.10;;;16.35;;
65373;SDS011;52070;53.760;9.678;2024-02-15T11:37:53;36.85;;;15.35;;
65373;SDS011;52070;53.760;9.678;2024-02-15T11:40:25;36.85;;;14.85;;
65373;SDS011;52070;53.760;9.678;2024-02-15T11:42:54;30.65;;;15.38;;
65373;SDS011;52070;53.760;9.678;2024-02-15T11:45:25;35.45;;;15.20;;
65373;SDS011;52070;53.760;9.678;2024-02-15T11:47:58;39.97;;;15.25;;
65373;SDS011;52070;53.760;9.678;2024-02-15T11:50:27;40.35;;;16.20;;
65373;SDS011;52070;53.760;9.678;2024-02-15T11:53:01;42.05;;;16.08;;
65373;SDS011;52070;53.760;9.678;2024-02-15T11:55:32;37.83;;;16.05;;
65373;SDS011;52070;53.760;9.678;2024-02-15T11:58:01;37.05;;;16.50;;
65373;SDS011;52070;53.760;9.678;2024-02-15T12:00:30;38.50;;;15.82;;
65373;SDS011;52070;53.760;9.678;2024-02-15T12:03:16;38.03;;;17.33;;
65373;SDS011;52070;53.760;9.678;2024-02-15T12:06:03;38.22;;;16.38;;
65373;SDS011;52070;53.760;9.678;2024-02-15T12:08:48;45.92;;;16.85;;
65373;SDS011;52070;53.760;9.678;2024-02-15T12:11:35;40.65;;;17.48;;
65373;SDS011;52070;53.760;9.678;2024-02-15T12:14:20;39.08;;;17.13;;
65373;SDS011;52070;53.760;9.678;2024-02-15T12:17:05;39.53;;;16.27;;
65373;SDS011;52070;53.760;9.678;2024-02-15T12:19:50;46.25;;;16.42;;
65373;SDS011;52070;53.760;9.678;2024-02-15T12:22:19;35.17;;;16.13;;
65373;SDS011;52070;53.760;9.678;2024-02-15T12:24:57;35.72;;;16.30;;
65373;SDS011;52070;53.760;9.678;2024-02-15T12:27:27;33.30;;;15.52;;
65373;SDS011;52070;53.760;9.678;2024-02-15T12:29:55;34.20;;;15.85;;
65373;SDS011;52070;53.760;9.678;2024-02-15T12:32:23;33.03;;;14.68;;
65373;SDS011;52070;53.760;9.678;2024-02-15T12:34:51;29.23;;;13.30;;
65373;SDS011;52070;53.760;9.678;2024-02-15T12:37:18;34.67;;;15.85;;
65373;SDS011;52070;53.760;9.678;2024-02-15T12:39:47;34.65;;;14.80;;
65373;SDS011;52070;53.760;9.678;2024-02-15T12:42:15;34.03;;;15.40;;
65373;SDS011;52070;53.760;9.678;2024-02-15T12:44:46;31.83;;;15.15;;
65373;SDS011;52070;53.760;9.678;2024-02-15T12:47:17;32.67;;;15.68;;
65373;SDS011;52070;53.760;9.678;2024-02-15T12:49:45;34.00;;;14.75;;
65373;SDS011;52070;53.760;9.678;2024-02-15T12:52:32;33.13;;;15.43;;
65373;SDS011;52070;53.760;9.678;2024-02-15T12:55:13;31.25;;;14.65;;
65373;SDS011;52070;53.760;9.678;2024-02-15T12:57:42;32.58;;;14.43;;
65373;SDS011;52070;53.760;9.678;2024-02-15T13:00:16;33.33;;;15.10;;
65373;SDS011;52070;53.760;9.678;2024-02-15T13:02:46;34.20;;;15.20;;
65373;SDS011;52070;53.760;9.678;2024-02-15T13:05:14;35.00;;;15.27;;
65373;SDS011;52070;53.760;9.678;2024-02-15T13:07:44;31.80;;;14.65;;
65373;SDS011;52070;53.760;9.678;2024-02-15T13:10:11;34.50;;;15.48;;
65373;SDS011;52070;53.760;9.678;2024-02-15T13:12:40;37.72;;;16.23;;
65373;SDS011;52070;53.760;9.678;2024-02-15T13:15:09;37.60;;;15.90;;
65373;SDS011;52070;53.760;9.678;2024-02-15T13:17:42;37.45;;;15.77;;
65373;SDS011;52070;53.760;9.678;2024-02-15T13:22:39;31.80;;;14.80;;
65373;SDS011;52070;53.760;9.678;2024-02-15T13:25:06;36.72;;;14.80;;
65373;SDS011;52070;53.760;9.678;2024-02-15T13:27:34;36.83;;;15.40;;
65373;SDS011;52070;53.760;9.678;2024-02-15T13:30:04;35.72;;;15.77;;
65373;SDS011;52070;53.760;9.678;2024-02-15T13:32:34;27.40;;;15.23;;
65373;SDS011;52070;53.760;9.678;2024-02-15T13:35:05;34.58;;;15.15;;
65373;SDS011;52070;53.760;9.678;2024-02-15T13:37:41;33.38;;;15.90;;
65373;SDS011;52070;53.760;9.678;2024-02-15T13:40:10;31.58;;;14.90;;
65373;SDS011;52070;53.760;9.678;2024-02-15T13:42:41;31.98;;;15.32;;
65373;SDS011;52070;53.760;9.678;2024-02-15T13:45:12;28.20;;;14.63;;
65373;SDS011;52070;53.760;9.678;2024-02-15T13:47:40;33.22;;;14.75;;
65373;SDS011;52070;53.760;9.678;2024-02-15T13:50:09;35.53;;;15.43;;
65373;SDS011;52070;53.760;9.678;2024-02-15T13:52:39;31.13;;;14.27;;
65373;SDS011;52070;53.760;9.678;2024-02-15T13:55:09;31.58;;;14.82;;
65373;SDS011;52070;53.760;9.678;2024-02-15T13:57:38;29.52;;;14.43;;
65373;SDS011;52070;53.760;9.678;2024-02-15T14:00:06;28.60;;;14.75;;
65373;SDS011;52070;53.760;9.678;2024-02-15T14:02:39;29.45;;;15.80;;
65373;SDS011;52070;53.760;9.678;2024-02-15T14:05:08;28.52;;;15.20;;
65373;SDS011;52070;53.760;9.678;2024-02-15T14:07:37;34.20;;;15.90;;
65373;SDS011;52070;53.760;9.678;2024-02-15T14:10:04;30.25;;;14.98;;
65373;SDS011;52070;53.760;9.678;2024-02-15T14:12:33;34.85;;;16.20;;
65373;SDS011;52070;53.760;9.678;2024-02-15T14:14:59;33.85;;;15.02;;
65373;SDS011;52070;53.760;9.678;2024-02-15T14:17:26;33.33;;;14.57;;
65373;SDS011;52070;53.760;9.678;2024-02-15T14:19:54;35.38;;;15.82;;
65373;SDS011;52070;53.760;9.678;2024-02-15T14:22:24;31.75;;;15.73;;
65373;SDS011;52070;53.760;9.678;2024-02-15T14:24:54;34.33;;;16.17;;
65373;SDS011;52070;53.760;9.678;2024-02-15T14:27:22;33.95;;;16.33;;
65373;SDS011;52070;53.760;9.678;2024-02-15T14:29:49;29.45;;;15.45;;
65373;SDS011;52070;53.760;9.678;2024-02-15T14:32:30;34.45;;;15.60;;
65373;SDS011;52070;53.760;9.678;2024-02-15T14:35:14;33.13;;;15.93;;
65373;SDS011;52070;53.760;9.678;2024-02-15T14:37:43;25.25;;;15.00;;
65373;SDS011;52070;53.760;9.678;2024-02-15T14:40:11;29.30;;;15.73;;
65373;SDS011;52070;53.760;9.678;2024-02-15T14:42:40;28.33;;;15.07;;
65373;SDS011;52070;53.760;9.678;2024-02-15T14:45:08;30.05;;;15.93;;